createdAt,value
2022-12-18T00:01:34.173Z,17.10
2022-12-18T00:04:08.928Z,17.10
2022-12-18T00:06:36.734Z,16.13
2022-12-18T00:09:04.304Z,15.60
2022-12-18T00:11:32.843Z,16.47
2022-12-18T00:14:01.964Z,17.13
2022-12-18T00:16:31.947Z,16.20
2022-12-18T00:19:00.686Z,16.70
2022-12-18T00:21:32.680Z,16.33
2022-12-18T00:24:01.389Z,16.80
2022-12-18T00:26:32.828Z,16.27
2022-12-18T00:29:07.213Z,16.43
2022-12-18T00:31:35.272Z,15.90
2022-12-18T00:34:03.318Z,17.87
2022-12-18T00:36:34.396Z,16.63
2022-12-18T00:39:04.942Z,16.90
2022-12-18T00:41:50.589Z,17.13
2022-12-18T00:44:20.182Z,15.83
2022-12-18T00:46:48.698Z,16.33
2022-12-18T00:49:18.995Z,15.13
2022-12-18T00:51:47.043Z,15.73
2022-12-18T00:54:14.605Z,15.70
2022-12-18T00:56:48.338Z,15.67
2022-12-18T00:59:17.360Z,15.93
2022-12-18T01:01:44.827Z,16.30
2022-12-18T01:04:11.907Z,15.70
2022-12-18T01:06:38.786Z,15.90
2022-12-18T01:09:07.323Z,15.73
2022-12-18T01:11:37.280Z,16.10
2022-12-18T01:14:05.554Z,16.13
2022-12-18T01:16:32.687Z,16.07
2022-12-18T01:18:59.826Z,16.97
2022-12-18T01:21:28.257Z,15.60
2022-12-18T01:23:57.523Z,15.77
2022-12-18T01:26:26.099Z,15.67
2022-12-18T01:28:56.270Z,16.00
2022-12-18T01:31:28.552Z,15.80
2022-12-18T01:33:57.091Z,15.67
2022-12-18T01:36:30.683Z,15.33
2022-12-18T01:39:04.483Z,16.97
2022-12-18T01:41:51.616Z,14.37
2022-12-18T01:45:12.506Z,15.40
2022-12-18T01:47:57.112Z,15.50
2022-12-18T01:50:35.051Z,15.27
2022-12-18T01:53:24.582Z,15.37
2022-12-18T01:55:56.271Z,14.70
2022-12-18T01:59:09.490Z,14.47
2022-12-18T02:01:38.915Z,15.00
2022-12-18T02:04:27.899Z,14.50
2022-12-18T02:07:22.751Z,14.07
2022-12-18T02:10:04.739Z,14.50
2022-12-18T02:13:13.396Z,15.40
2022-12-18T02:16:22.508Z,14.33
2022-12-18T02:18:58.389Z,13.07
2022-12-18T02:21:53.601Z,14.10
2022-12-18T02:25:07.386Z,14.27
2022-12-18T02:27:39.001Z,13.27
2022-12-18T02:30:09.048Z,13.63
2022-12-18T02:32:42.942Z,12.70
2022-12-18T02:35:24.839Z,13.03
2022-12-18T02:37:59.022Z,13.33
2022-12-18T02:40:30.195Z,13.60
2022-12-18T02:43:11.399Z,13.37
2022-12-18T02:45:55.262Z,14.13
2022-12-18T02:48:34.853Z,13.33
2022-12-18T02:51:39.951Z,13.07
2022-12-18T02:54:38.472Z,13.50
2022-12-18T02:57:24.567Z,13.00
2022-12-18T03:00:02.318Z,13.93
2022-12-18T03:02:43.478Z,12.93
2022-12-18T03:05:32.370Z,12.77
2022-12-18T03:08:15.624Z,12.77
2022-12-18T03:11:00.804Z,12.50
2022-12-18T03:13:58.307Z,13.00
2022-12-18T03:16:32.013Z,11.97
2022-12-18T03:19:16.031Z,12.27
2022-12-18T03:21:57.434Z,12.97
2022-12-18T03:24:32.243Z,12.50
2022-12-18T03:27:07.111Z,12.83
2022-12-18T03:29:43.051Z,11.17
2022-12-18T03:32:24.822Z,12.33
2022-12-18T03:34:56.232Z,12.00
2022-12-18T03:37:24.043Z,13.23
2022-12-18T03:39:52.745Z,12.13
2022-12-18T03:42:36.672Z,11.63
2022-12-18T03:45:23.213Z,11.57
2022-12-18T03:48:30.401Z,11.87
2022-12-18T03:51:08.992Z,11.40
2022-12-18T03:53:59.295Z,10.97
2022-12-18T03:56:37.859Z,11.17
2022-12-18T03:59:08.723Z,11.30
2022-12-18T04:01:43.487Z,12.43
2022-12-18T04:04:17.573Z,11.87
2022-12-18T04:06:49.385Z,11.77
2022-12-18T04:09:20.994Z,11.77
2022-12-18T04:11:49.099Z,12.00
2022-12-18T04:14:18.186Z,11.77
2022-12-18T04:16:48.435Z,11.87
2022-12-18T04:19:17.893Z,11.03
2022-12-18T04:21:47.654Z,12.17
2022-12-18T04:24:15.292Z,11.93
2022-12-18T04:26:50.928Z,12.53
2022-12-18T04:29:23.038Z,11.77
2022-12-18T04:31:49.881Z,12.77
2022-12-18T04:34:17.363Z,11.03
2022-12-18T04:36:50.859Z,12.17
2022-12-18T04:39:19.595Z,11.10
2022-12-18T04:41:48.817Z,11.07
2022-12-18T04:44:15.864Z,11.50
2022-12-18T04:46:43.468Z,11.10
2022-12-18T04:49:11.709Z,11.07
2022-12-18T04:51:38.892Z,11.13
2022-12-18T04:54:05.975Z,11.90
2022-12-18T04:56:33.290Z,11.97
2022-12-18T04:59:00.948Z,11.43
2022-12-18T05:01:34.052Z,11.90
2022-12-18T05:04:02.745Z,10.57
2022-12-18T05:06:29.788Z,10.37
2022-12-18T05:08:56.883Z,11.60
2022-12-18T05:11:23.734Z,10.53
2022-12-18T05:13:51.422Z,11.67
2022-12-18T05:16:18.422Z,10.03
2022-12-18T05:18:45.417Z,11.07
2022-12-18T05:21:12.350Z,11.00
2022-12-18T05:23:39.599Z,11.40
2022-12-18T05:26:08.842Z,11.17
2022-12-18T05:28:37.433Z,10.80
2022-12-18T05:31:05.948Z,10.33
2022-12-18T05:33:35.545Z,10.53
2022-12-18T05:36:06.367Z,10.23
2022-12-18T05:38:37.225Z,11.00
2022-12-18T05:41:05.202Z,10.07
2022-12-18T05:43:32.575Z,10.77
2022-12-18T05:46:05.201Z,10.00
2022-12-18T05:48:32.095Z,10.67
2022-12-18T05:51:07.042Z,10.10
2022-12-18T05:53:34.472Z,11.27
2022-12-18T05:56:04.884Z,10.63
2022-12-18T05:58:32.960Z,10.60
2022-12-18T06:01:27.430Z,10.23
2022-12-18T06:03:55.790Z,10.67
2022-12-18T06:06:28.750Z,11.13
2022-12-18T06:08:57.479Z,10.80
2022-12-18T06:11:27.515Z,9.70
2022-12-18T06:13:58.919Z,9.80
2022-12-18T06:16:28.078Z,11.10
2022-12-18T06:19:01.977Z,10.73
2022-12-18T06:21:30.113Z,10.77
2022-12-18T06:23:57.288Z,10.40
2022-12-18T06:26:27.994Z,9.67
2022-12-18T06:28:55.767Z,10.10
2022-12-18T06:31:22.628Z,10.67
2022-12-18T06:33:49.501Z,10.40
2022-12-18T06:36:17.552Z,10.90
2022-12-18T06:38:45.287Z,9.43
2022-12-18T06:41:15.641Z,10.17
2022-12-18T06:43:43.749Z,9.73
2022-12-18T06:46:11.968Z,9.93
2022-12-18T06:48:39.425Z,10.17
2022-12-18T06:51:06.577Z,10.90
2022-12-18T06:53:34.300Z,10.03
2022-12-18T06:56:10.392Z,9.90
2022-12-18T06:58:39.384Z,10.40
2022-12-18T07:01:10.662Z,10.23
2022-12-18T07:03:42.918Z,10.63
2022-12-18T07:06:20.308Z,10.20
2022-12-18T07:08:49.530Z,10.47
2022-12-18T07:11:18.540Z,10.30
2022-12-18T07:13:46.205Z,10.60
2022-12-18T07:16:22.576Z,9.97
2022-12-18T07:18:52.416Z,11.30
2022-12-18T07:21:21.277Z,10.60
2022-12-18T07:23:49.116Z,11.17
2022-12-18T07:26:20.021Z,11.37
2022-12-18T07:28:47.372Z,10.67
2022-12-18T07:31:19.641Z,11.03
2022-12-18T07:33:49.411Z,11.87
2022-12-18T07:36:16.942Z,10.60
2022-12-18T07:38:44.056Z,12.33
2022-12-18T07:41:14.648Z,10.77
2022-12-18T07:43:43.133Z,10.37
2022-12-18T07:46:13.387Z,11.90
2022-12-18T07:48:42.377Z,11.27
2022-12-18T07:51:13.984Z,12.17
2022-12-18T07:53:41.888Z,11.13
2022-12-18T07:56:29.962Z,13.03
2022-12-18T07:58:59.933Z,11.87
2022-12-18T08:01:29.556Z,11.20
2022-12-18T08:03:56.572Z,11.50
2022-12-18T08:06:24.572Z,11.53
2022-12-18T08:08:54.388Z,11.40
2022-12-18T08:11:22.353Z,11.60
2022-12-18T08:13:49.483Z,11.33
2022-12-18T08:16:17.012Z,11.13
2022-12-18T08:18:43.935Z,11.00
2022-12-18T08:21:22.796Z,11.87
2022-12-18T08:23:52.080Z,11.70
2022-12-18T08:26:24.236Z,10.77
2022-12-18T08:28:52.564Z,11.73
2022-12-18T08:31:20.387Z,10.87
2022-12-18T08:33:50.982Z,11.03
2022-12-18T08:36:18.290Z,10.83
2022-12-18T08:38:45.157Z,10.50
2022-12-18T08:41:14.931Z,12.80
2022-12-18T08:44:05.416Z,11.97
2022-12-18T08:46:40.844Z,11.00
2022-12-18T08:49:10.215Z,11.90
2022-12-18T08:51:37.894Z,12.50
2022-12-18T08:54:06.548Z,11.87
2022-12-18T08:56:34.191Z,11.63
2022-12-18T08:59:01.269Z,12.33
2022-12-18T09:01:28.603Z,11.50
2022-12-18T09:03:55.606Z,11.13
2022-12-18T09:06:23.834Z,12.20
2022-12-18T09:08:51.054Z,11.80
2022-12-18T09:11:25.275Z,12.63
2022-12-18T09:13:53.477Z,11.40
2022-12-18T09:16:21.010Z,13.20
2022-12-18T09:18:48.934Z,12.00
2022-12-18T09:21:20.557Z,11.93
2022-12-18T09:23:52.554Z,12.00
2022-12-18T09:26:19.905Z,12.30
2022-12-18T09:28:46.946Z,11.70
2022-12-18T09:31:19.249Z,11.93
2022-12-18T09:33:46.183Z,12.40
2022-12-18T09:36:16.990Z,12.43
2022-12-18T09:38:44.367Z,11.73
2022-12-18T09:41:45.266Z,12.23
2022-12-18T09:44:21.257Z,11.80
2022-12-18T09:47:19.915Z,11.53
2022-12-18T09:49:54.248Z,12.10
2022-12-18T09:52:46.385Z,13.00
2022-12-18T09:55:45.943Z,12.73
2022-12-18T09:58:19.810Z,11.77
2022-12-18T10:00:47.012Z,13.67
2022-12-18T10:03:16.757Z,13.17
2022-12-18T10:06:04.981Z,12.30
2022-12-18T10:08:52.660Z,13.90
2022-12-18T10:12:21.262Z,12.80
2022-12-18T10:15:20.836Z,12.77
2022-12-18T10:18:08.038Z,12.87
2022-12-18T10:20:55.130Z,12.90
2022-12-18T10:23:36.768Z,14.17
2022-12-18T10:26:12.499Z,14.37
2022-12-18T10:28:42.642Z,13.33
2022-12-18T10:31:24.199Z,13.73
2022-12-18T10:33:54.740Z,12.77
2022-12-18T10:36:24.831Z,13.37
2022-12-18T10:38:52.499Z,13.70
2022-12-18T10:41:19.989Z,13.60
2022-12-18T10:43:49.698Z,13.77
2022-12-18T10:46:22.182Z,13.03
2022-12-18T10:48:49.199Z,13.17
2022-12-18T10:51:31.678Z,13.03
2022-12-18T10:54:15.604Z,12.70
2022-12-18T10:56:43.142Z,12.83
2022-12-18T10:59:18.244Z,12.33
2022-12-18T11:01:56.443Z,14.03
2022-12-18T11:04:30.831Z,12.83
2022-12-18T11:07:01.570Z,12.80
2022-12-18T11:09:35.713Z,12.83
2022-12-18T11:12:18.636Z,13.10
2022-12-18T11:14:50.671Z,14.37
2022-12-18T11:17:33.101Z,12.97
2022-12-18T11:20:23.363Z,13.23
2022-12-18T11:23:13.111Z,12.00
2022-12-18T11:25:40.676Z,11.77
2022-12-18T11:28:53.698Z,12.67
2022-12-18T11:31:32.215Z,13.37
2022-12-18T11:36:51.019Z,13.53
2022-12-18T11:39:45.837Z,12.77
2022-12-18T11:42:35.456Z,13.53
2022-12-18T11:45:14.329Z,13.40
2022-12-18T11:47:58.308Z,13.17
2022-12-18T11:50:32.473Z,12.80
2022-12-18T11:53:06.265Z,13.10
2022-12-18T11:56:14.070Z,12.00
2022-12-18T11:59:03.200Z,12.27
2022-12-18T12:02:02.341Z,12.03
2022-12-18T12:04:45.191Z,12.57
2022-12-18T12:07:46.511Z,12.17
2022-12-18T12:10:53.398Z,12.20
2022-12-18T12:13:29.428Z,13.67
2022-12-18T12:16:19.675Z,13.27
2022-12-18T12:19:05.396Z,12.40
2022-12-18T12:21:59.322Z,12.73
2022-12-18T12:25:04.371Z,12.07
2022-12-18T12:28:21.487Z,11.67
2022-12-18T12:31:04.009Z,12.00
2022-12-18T12:34:00.956Z,12.17
2022-12-18T12:36:58.754Z,11.80
2022-12-18T12:39:36.369Z,11.80
2022-12-18T12:42:38.338Z,12.90
2022-12-18T12:45:20.033Z,12.77
2022-12-18T12:47:51.539Z,12.97
2022-12-18T12:50:22.904Z,12.90
2022-12-18T12:52:58.255Z,12.30
2022-12-18T12:55:30.761Z,13.67
2022-12-18T12:59:07.798Z,13.37
2022-12-18T13:01:49.087Z,12.70
2022-12-18T13:04:36.653Z,12.13
2022-12-18T13:07:36.520Z,12.53
2022-12-18T13:10:25.852Z,11.50
2022-12-18T13:13:17.894Z,13.00
2022-12-18T13:16:07.424Z,12.23
2022-12-18T13:18:36.045Z,11.70
2022-12-18T13:21:28.664Z,12.10
2022-12-18T13:23:58.338Z,12.73
2022-12-18T13:26:28.939Z,12.57
2022-12-18T13:28:59.090Z,12.03
2022-12-18T13:31:40.955Z,12.53
2022-12-18T13:34:28.119Z,11.97
2022-12-18T13:37:17.649Z,13.00
2022-12-18T13:39:44.961Z,12.50
2022-12-18T13:42:32.788Z,11.93
2022-12-18T13:45:00.881Z,12.30
2022-12-18T13:47:41.274Z,12.33
2022-12-18T13:50:32.454Z,11.67
2022-12-18T13:53:06.067Z,12.50
2022-12-18T13:55:33.651Z,11.10
2022-12-18T13:58:07.926Z,11.47
2022-12-18T14:00:35.176Z,11.87
2022-12-18T14:03:02.488Z,12.73
2022-12-18T14:05:38.642Z,12.70
2022-12-18T14:08:14.391Z,12.73
2022-12-18T14:10:50.062Z,12.00
2022-12-18T14:13:37.847Z,12.13
2022-12-18T14:16:08.639Z,11.00
2022-12-18T14:19:02.263Z,12.13
2022-12-18T14:21:51.378Z,11.47
2022-12-18T14:24:22.416Z,12.40
2022-12-18T14:26:51.534Z,11.77
2022-12-18T14:29:28.785Z,11.67
2022-12-18T14:32:26.139Z,13.00
2022-12-18T14:34:55.350Z,11.60
2022-12-18T14:37:29.247Z,12.37
2022-12-18T14:40:10.928Z,11.77
2022-12-18T14:42:38.893Z,12.07
2022-12-18T14:45:41.871Z,12.67
2022-12-18T14:48:34.706Z,12.67
2022-12-18T14:51:07.235Z,11.90
2022-12-18T14:53:55.364Z,12.60
2022-12-18T14:56:33.147Z,12.43
2022-12-18T14:59:05.017Z,11.93
2022-12-18T15:01:40.159Z,12.27
2022-12-18T15:04:32.544Z,11.83
2022-12-18T15:07:08.605Z,11.73
2022-12-18T15:09:35.870Z,11.63
2022-12-18T15:12:03.785Z,11.57
2022-12-18T15:14:38.257Z,12.23
2022-12-18T15:17:28.108Z,12.03
2022-12-18T15:20:04.510Z,11.33
2022-12-18T15:22:37.008Z,11.83
2022-12-18T15:25:27.078Z,11.83
2022-12-18T15:27:53.980Z,11.80
2022-12-18T15:30:25.153Z,12.30
2022-12-18T15:33:13.794Z,12.93
2022-12-18T15:35:46.642Z,11.87
2022-12-18T15:38:14.015Z,11.70
2022-12-18T15:40:40.869Z,12.37
2022-12-18T15:43:29.125Z,12.10
2022-12-18T15:45:56.036Z,12.50
2022-12-18T15:48:24.018Z,11.93
2022-12-18T15:50:57.828Z,12.33
2022-12-18T15:53:34.459Z,11.90
2022-12-18T15:56:19.677Z,12.63
2022-12-18T15:58:47.296Z,11.80
2022-12-18T16:01:30.141Z,12.43
2022-12-18T16:03:57.771Z,11.60
2022-12-18T16:06:24.895Z,12.30
2022-12-18T16:08:51.801Z,12.47
2022-12-18T16:11:42.775Z,12.37
2022-12-18T16:14:28.504Z,11.73
2022-12-18T16:16:59.904Z,11.80
2022-12-18T16:19:28.629Z,13.07
2022-12-18T16:21:58.330Z,12.13
2022-12-18T16:24:29.457Z,12.37
2022-12-18T16:27:00.258Z,13.43
2022-12-18T16:29:30.007Z,12.40
2022-12-18T16:32:01.588Z,13.43
2022-12-18T16:34:35.825Z,12.93
2022-12-18T16:37:07.820Z,13.37
2022-12-18T16:39:36.396Z,13.30
2022-12-18T16:42:20.109Z,12.63
2022-12-18T16:44:50.010Z,12.13
2022-12-18T16:47:18.172Z,12.67
2022-12-18T16:49:46.242Z,12.67
2022-12-18T16:52:14.967Z,13.20
2022-12-18T16:54:42.040Z,12.70
2022-12-18T16:57:13.564Z,12.80
2022-12-18T16:59:40.679Z,12.87
2022-12-18T17:02:21.672Z,13.00
2022-12-18T17:04:53.871Z,12.13
2022-12-18T17:07:21.069Z,12.50
2022-12-18T17:09:47.912Z,12.70
2022-12-18T17:12:14.731Z,12.53
2022-12-18T17:14:41.660Z,13.87
2022-12-18T17:17:20.935Z,13.10
2022-12-18T17:19:49.516Z,11.83
2022-12-18T17:22:16.445Z,13.17
2022-12-18T17:24:43.508Z,12.47
2022-12-18T17:27:10.645Z,13.30
2022-12-18T17:29:40.094Z,12.33
2022-12-18T17:32:10.739Z,13.90
2022-12-18T17:34:37.679Z,13.43
2022-12-18T17:37:04.644Z,13.00
2022-12-18T17:39:31.563Z,12.73
2022-12-18T17:41:59.384Z,13.33
2022-12-18T17:44:26.566Z,13.33
2022-12-18T17:46:53.639Z,13.27
2022-12-18T17:49:21.636Z,13.57
2022-12-18T17:51:48.987Z,12.33
2022-12-18T17:54:16.074Z,12.77
2022-12-18T17:56:43.113Z,13.50
2022-12-18T17:59:11.146Z,12.93
2022-12-18T18:01:44.008Z,13.13
2022-12-18T18:04:11.709Z,12.90
2022-12-18T18:06:39.247Z,13.33
2022-12-18T18:09:10.310Z,12.43
2022-12-18T18:12:04.262Z,12.67
2022-12-18T18:14:31.981Z,12.20
2022-12-18T18:17:04.090Z,12.13
2022-12-18T18:19:34.196Z,13.67
2022-12-18T18:22:02.185Z,12.30
2022-12-18T18:24:30.221Z,12.33
2022-12-18T18:26:59.525Z,12.70
2022-12-18T18:29:30.387Z,12.77
2022-12-18T18:31:57.516Z,12.87
2022-12-18T18:34:28.270Z,12.63
2022-12-18T18:36:58.573Z,13.27
2022-12-18T18:39:26.792Z,13.03
2022-12-18T18:41:53.685Z,13.03
2022-12-18T18:44:24.800Z,13.23
2022-12-18T18:46:58.346Z,13.63
2022-12-18T18:49:28.304Z,13.17
2022-12-18T18:51:57.079Z,12.50
2022-12-18T18:54:25.874Z,12.37
2022-12-18T18:59:40.058Z,13.00
2022-12-18T19:02:09.546Z,12.80
2022-12-18T19:04:36.600Z,12.47
2022-12-18T19:07:09.383Z,12.83
2022-12-18T19:09:36.323Z,13.13
2022-12-18T19:12:22.928Z,12.83
2022-12-18T19:14:49.948Z,12.67
2022-12-18T19:17:16.852Z,13.57
2022-12-18T19:19:44.084Z,12.37
2022-12-18T19:22:11.343Z,13.40
2022-12-18T19:24:38.634Z,13.43
2022-12-18T19:27:05.529Z,13.40
2022-12-18T19:29:32.495Z,14.33
2022-12-18T19:31:59.531Z,11.97
2022-12-18T19:34:27.480Z,13.57
2022-12-18T19:36:59.916Z,13.53
2022-12-18T19:39:28.300Z,14.30
2022-12-18T19:41:55.174Z,13.33
2022-12-18T19:44:22.070Z,13.17
2022-12-18T19:46:51.728Z,13.27
2022-12-18T19:49:21.549Z,13.73
2022-12-18T19:51:50.150Z,14.17
2022-12-18T19:54:17.932Z,13.57
2022-12-18T19:56:46.411Z,14.40
2022-12-18T19:59:13.626Z,14.03
2022-12-18T20:01:41.399Z,13.70
2022-12-18T20:04:08.563Z,14.33
2022-12-18T20:06:53.799Z,13.37
2022-12-18T20:09:21.718Z,13.73
2022-12-18T20:11:49.925Z,13.47
2022-12-18T20:14:22.864Z,14.33
2022-12-18T20:16:52.119Z,14.67
2022-12-18T20:19:19.747Z,15.00
2022-12-18T20:21:47.840Z,14.73
2022-12-18T20:24:14.641Z,14.63
2022-12-18T20:26:41.808Z,15.10
2022-12-18T20:29:08.736Z,13.77
2022-12-18T20:31:35.725Z,14.17
2022-12-18T20:34:04.072Z,14.57
2022-12-18T20:36:35.111Z,14.43
2022-12-18T20:39:05.438Z,14.27
2022-12-18T20:41:37.958Z,13.70
2022-12-18T20:44:21.750Z,14.10
2022-12-18T20:46:56.997Z,14.20
2022-12-18T20:49:26.606Z,15.27
2022-12-18T20:51:56.294Z,14.07
2022-12-18T20:54:26.277Z,14.57
2022-12-18T20:56:53.549Z,14.03
2022-12-18T20:59:20.584Z,14.83
2022-12-18T21:01:49.661Z,14.90
2022-12-18T21:04:19.155Z,14.70
2022-12-18T21:06:54.215Z,14.57
2022-12-18T21:09:32.327Z,13.73
2022-12-18T21:12:43.900Z,14.07
2022-12-18T21:15:16.747Z,14.57
2022-12-18T21:17:44.991Z,14.70
2022-12-18T21:20:17.865Z,14.13
2022-12-18T21:22:46.863Z,14.70
2022-12-18T21:25:13.975Z,15.53
2022-12-18T21:27:41.078Z,14.70
2022-12-18T21:30:08.825Z,14.37
2022-12-18T21:32:35.778Z,15.60
2022-12-18T21:35:02.708Z,14.50
2022-12-18T21:37:29.601Z,15.07
2022-12-18T21:39:56.461Z,14.60
2022-12-18T21:42:41.790Z,13.97
2022-12-18T21:45:09.160Z,14.10
2022-12-18T21:47:35.975Z,16.57
2022-12-18T21:50:02.916Z,15.03
2022-12-18T21:52:32.187Z,16.37
2022-12-18T21:55:08.476Z,16.70
2022-12-18T21:57:38.805Z,17.00
2022-12-18T22:00:10.419Z,18.03
2022-12-18T22:02:39.929Z,17.43
2022-12-18T22:05:07.432Z,16.50
2022-12-18T22:07:34.621Z,15.93
2022-12-18T22:10:01.933Z,16.10
2022-12-18T22:12:36.571Z,15.13
2022-12-18T22:15:16.278Z,14.37
2022-12-18T22:17:51.142Z,15.37
2022-12-18T22:20:21.169Z,15.63
2022-12-18T22:22:50.425Z,14.93
2022-12-18T22:25:18.083Z,15.90
2022-12-18T22:28:05.076Z,14.37
2022-12-18T22:30:31.986Z,14.53
2022-12-18T22:32:59.057Z,15.23
2022-12-18T22:35:25.900Z,15.23
2022-12-18T22:37:53.010Z,15.50
2022-12-18T22:40:28.913Z,16.10
2022-12-18T22:42:56.295Z,15.70
2022-12-18T22:45:25.372Z,15.03
2022-12-18T22:47:52.522Z,15.80
2022-12-18T22:50:20.778Z,15.93
2022-12-18T22:52:47.653Z,16.47
2022-12-18T22:55:14.573Z,16.23
2022-12-18T22:57:44.401Z,15.60
2022-12-18T23:00:17.883Z,15.20
2022-12-18T23:02:57.635Z,14.77
2022-12-18T23:05:27.607Z,15.13
2022-12-18T23:07:54.553Z,16.53
2022-12-18T23:10:21.507Z,15.37
2022-12-18T23:12:48.358Z,15.47
2022-12-18T23:15:15.774Z,15.77
2022-12-18T23:17:44.940Z,15.63
2022-12-18T23:20:12.055Z,15.60
2022-12-18T23:22:38.901Z,15.30
2022-12-18T23:25:06.201Z,15.67
2022-12-18T23:27:35.670Z,15.90
2022-12-18T23:30:02.638Z,16.57
2022-12-18T23:32:29.490Z,15.73
2022-12-18T23:34:56.393Z,15.07
2022-12-18T23:37:56.877Z,15.37
2022-12-18T23:40:10.671Z,16.43
2022-12-18T23:42:37.569Z,16.40
2022-12-18T23:45:11.756Z,16.10
2022-12-18T23:47:44.831Z,14.53
2022-12-18T23:50:14.014Z,15.60
2022-12-18T23:52:41.263Z,16.43
2022-12-18T23:55:08.636Z,17.13
2022-12-18T23:57:35.557Z,16.10
